Time;durP1;ratioP1;P1;durP2;ratioP2;P2;SDS_P1;SDS_P2;PMS_P1;PMS_P2;Temp;Humidity;BMP_temperature;BMP_pressure;BME280_temperature;BME280_humidity;BME280_pressure;Samples;Min_cycle;Max_cycle;Signal;HPM_P1;HPM_P2
2021/03/04 00:01:55;;;;;;;12.20;5.90;;;;;;;8.04;88.38;101494.53;5075362;28;20915;-66
2021/03/04 00:04:21;;;;;;;11.07;4.87;;;;;;;8.06;87.91;101492.38;5075013;28;20987;-66
2021/03/04 00:06:47;;;;;;;4.73;3.07;;;;;;;8.01;88.62;101488.84;5075159;28;20445;-67
2021/03/04 00:09:14;;;;;;;12.27;6.90;;;;;;;8.03;88.87;101481.31;5075041;28;20441;-67
2021/03/04 00:11:40;;;;;;;5.97;4.47;;;;;;;8.02;88.33;101483.19;5074996;28;20481;-67
2021/03/04 00:14:06;;;;;;;12.80;4.63;;;;;;;7.98;89.00;101473.19;5075382;28;21016;-67
2021/03/04 00:16:32;;;;;;;12.63;4.23;;;;;;;7.95;89.14;101471.00;5075122;28;20973;-67
2021/03/04 00:18:58;;;;;;;4.67;2.57;;;;;;;7.94;88.92;101466.69;5074891;28;20864;-67
2021/03/04 00:21:24;;;;;;;5.43;4.53;;;;;;;7.91;88.97;101469.91;5074445;28;20510;-66
2021/03/04 00:23:50;;;;;;;7.60;4.10;;;;;;;7.84;89.21;101468.25;5075072;28;20426;-66
2021/03/04 00:26:16;;;;;;;8.93;6.83;;;;;;;7.80;89.29;101471.75;5074544;28;20875;-67
2021/03/04 00:28:42;;;;;;;7.60;3.70;;;;;;;7.77;89.10;101464.97;5074606;28;20965;-66
2021/03/04 00:31:08;;;;;;;7.93;5.20;;;;;;;7.74;89.15;101467.38;5074696;28;20524;-66
2021/03/04 00:33:34;;;;;;;17.13;5.03;;;;;;;7.66;89.35;101476.78;5074856;28;20791;-67
2021/03/04 00:36:00;;;;;;;9.37;5.63;;;;;;;7.63;89.42;101466.50;5074893;28;20437;-67
2021/03/04 00:38:26;;;;;;;16.77;6.50;;;;;;;7.57;89.13;101465.66;5074270;28;20943;-67
2021/03/04 00:40:52;;;;;;;21.50;4.77;;;;;;;7.54;89.39;101468.88;5074597;28;20437;-65
2021/03/04 00:43:19;;;;;;;6.90;5.23;;;;;;;7.51;88.78;101463.16;5074369;28;20469;-65
2021/03/04 00:45:45;;;;;;;15.97;4.03;;;;;;;7.43;88.67;101461.75;5074463;28;20563;-65
2021/03/04 00:48:11;;;;;;;7.77;3.47;;;;;;;7.44;88.97;101462.59;5074411;28;20471;-68
2021/03/04 00:50:37;;;;;;;19.53;4.03;;;;;;;7.40;89.02;101462.28;5074386;28;20498;-67
2021/03/04 00:53:04;;;;;;;4.20;2.40;;;;;;;7.31;89.16;101455.75;5074295;28;20496;-67
2021/03/04 00:55:30;;;;;;;5.60;3.73;;;;;;;7.31;89.41;101450.38;5074348;28;20445;-67
2021/03/04 00:57:56;;;;;;;7.83;3.77;;;;;;;7.24;88.84;101450.56;5074172;28;20552;-67
2021/03/04 01:00:23;;;;;;;8.37;3.40;;;;;;;7.10;88.91;101440.50;5074267;28;20811;-67
2021/03/04 01:02:49;;;;;;;2.50;2.30;;;;;;;7.03;89.53;101440.69;5074131;28;20465;-67
2021/03/04 01:05:16;;;;;;;6.00;5.40;;;;;;;7.02;90.14;101428.28;5074102;28;20445;-67
2021/03/04 01:07:42;;;;;;;7.33;5.50;;;;;;;7.03;90.19;101435.28;5074125;28;20448;-66
2021/03/04 01:10:11;;;;;;;8.13;3.93;;;;;;;7.02;89.87;101434.50;5074138;28;20441;-67
2021/03/04 01:12:37;;;;;;;8.40;2.87;;;;;;;6.94;89.45;101424.19;5073896;28;20884;-67
2021/03/04 01:15:06;;;;;;;5.30;3.10;;;;;;;6.89;89.48;101423.31;5073636;28;20962;-67
2021/03/04 01:17:32;;;;;;;7.37;3.17;;;;;;;6.79;89.56;101421.34;5073912;28;20448;-67
2021/03/04 01:19:58;;;;;;;4.77;3.73;;;;;;;6.71;89.23;101417.22;5073888;28;20438;-67
2021/03/04 01:22:24;;;;;;;6.03;3.83;;;;;;;6.61;88.98;101413.66;5073513;28;20477;-67
2021/03/04 01:24:50;;;;;;;3.80;3.40;;;;;;;6.42;89.62;101419.38;5073722;28;20442;-67
2021/03/04 01:27:16;;;;;;;9.53;3.57;;;;;;;6.32;90.13;101409.28;5073795;28;20449;-67
2021/03/04 01:29:42;;;;;;;4.40;2.43;;;;;;;6.23;90.14;101410.00;5073720;28;20441;-67
2021/03/04 01:32:08;;;;;;;4.40;2.87;;;;;;;6.16;90.18;101407.50;5072750;28;20485;-67
2021/03/04 01:34:35;;;;;;;18.23;5.90;;;;;;;6.11;90.22;101402.06;5073751;28;20437;-67
2021/03/04 01:37:01;;;;;;;5.17;4.30;;;;;;;6.06;90.77;101401.97;5073566;28;20461;-67
2021/03/04 01:39:27;;;;;;;6.43;3.23;;;;;;;6.02;90.97;101403.53;5073550;28;20441;-67
2021/03/04 01:41:53;;;;;;;8.40;2.60;;;;;;;5.98;91.27;101397.06;5073387;28;20499;-67
2021/03/04 01:44:19;;;;;;;6.80;3.20;;;;;;;5.99;92.89;101387.94;5073602;28;20857;-67
2021/03/04 01:46:45;;;;;;;2.70;2.50;;;;;;;5.99;92.91;101383.38;5073522;28;20957;-66
2021/03/04 01:49:11;;;;;;;1.47;1.10;;;;;;;5.96;92.89;101372.28;5073381;28;20821;-67
2021/03/04 01:51:38;;;;;;;14.10;2.50;;;;;;;5.92;92.53;101380.03;5073241;28;20490;-67
2021/03/04 01:54:05;;;;;;;4.07;2.50;;;;;;;5.88;92.51;101375.38;5073415;28;20528;-68
2021/03/04 01:56:31;;;;;;;10.00;3.77;;;;;;;5.81;91.69;101373.69;5073241;28;20495;-68
2021/03/04 01:58:57;;;;;;;10.40;3.23;;;;;;;5.77;91.43;101369.88;5073311;28;20440;-67
2021/03/04 02:01:23;;;;;;;11.20;3.90;;;;;;;5.76;92.08;101373.66;5072893;28;20483;-68
2021/03/04 02:03:49;;;;;;;6.07;2.73;;;;;;;5.81;94.14;101371.03;5073097;28;20495;-67
2021/03/04 02:06:18;;;;;;;4.03;3.47;;;;;;;5.91;95.50;101366.81;5072971;28;20484;-67
2021/03/04 02:08:51;;;;;;;5.80;4.13;;;;;;;5.93;95.56;101367.41;5073253;28;20449;-68
2021/03/04 02:11:23;;;;;;;2.40;1.43;;;;;;;5.83;95.59;101366.19;5073042;28;20425;-67
2021/03/04 02:13:57;;;;;;;8.77;4.53;;;;;;;5.88;95.87;101356.56;5072889;28;20417;-67
2021/03/04 02:16:29;;;;;;;10.60;5.23;;;;;;;5.90;95.53;101351.75;5073179;28;20799;-68
2021/03/04 02:18:58;;;;;;;16.27;4.37;;;;;;;5.88;95.28;101359.25;5073244;28;20425;-67
2021/03/04 02:21:37;;;;;;;4.83;4.37;;;;;;;5.80;94.44;101357.84;5072835;28;20492;-68
2021/03/04 02:24:24;;;;;;;8.20;3.70;;;;;;;5.76;94.12;101360.22;5073123;28;20426;-68
2021/03/04 02:27:08;;;;;;;4.57;3.63;;;;;;;5.76;94.44;101352.13;5073158;28;20806;-67
2021/03/04 02:29:39;;;;;;;6.60;2.93;;;;;;;5.80;94.21;101358.66;5071730;28;20453;-68
2021/03/04 02:32:08;;;;;;;6.37;3.67;;;;;;;5.79;94.12;101354.31;5072804;28;20489;-67
2021/03/04 02:34:34;;;;;;;9.70;7.43;;;;;;;5.80;94.54;101345.19;5072637;28;20942;-68
2021/03/04 02:37:02;;;;;;;8.30;2.70;;;;;;;5.85;94.43;101346.34;5072665;28;20438;-67
2021/03/04 02:39:30;;;;;;;8.70;2.80;;;;;;;5.90;94.22;101346.38;5072775;28;20502;-67
2021/03/04 02:41:57;;;;;;;9.30;4.93;;;;;;;6.00;94.36;101346.53;5073018;28;20512;-67
2021/03/04 02:44:25;;;;;;;6.23;5.60;;;;;;;6.05;95.91;101350.06;5076430;28;20445;-68
2021/03/04 02:46:51;;;;;;;6.33;5.37;;;;;;;6.14;96.19;101358.50;5077049;28;20498;-67
2021/03/04 02:49:20;;;;;;;5.20;4.80;;;;;;;6.16;96.15;101359.09;5076572;28;20857;-66
2021/03/04 02:51:47;;;;;;;3.13;2.93;;;;;;;6.18;96.16;101353.44;5076794;28;20477;-67
2021/03/04 02:54:13;;;;;;;33.50;4.33;;;;;;;6.21;96.10;101348.38;5076764;28;20472;-66
2021/03/04 02:56:40;;;;;;;2.80;1.90;;;;;;;6.24;95.81;101352.44;5076582;28;20438;-67
2021/03/04 02:59:08;;;;;;;7.37;4.50;;;;;;;6.22;95.96;101358.06;5076578;28;20448;-67
2021/03/04 03:01:36;;;;;;;3.50;3.20;;;;;;;6.22;95.51;101358.06;5076259;28;20468;-67
2021/03/04 03:04:04;;;;;;;7.57;2.57;;;;;;;6.20;95.48;101364.78;5076356;28;20429;-66
2021/03/04 03:06:32;;;;;;;9.60;4.37;;;;;;;6.18;95.46;101373.09;5076494;28;20437;-67
2021/03/04 03:08:59;;;;;;;5.90;4.07;;;;;;;6.16;95.31;101369.03;5076477;28;20517;-66
2021/03/04 03:11:26;;;;;;;11.67;5.77;;;;;;;6.12;95.31;101367.91;5076284;28;20528;-67
2021/03/04 03:13:54;;;;;;;7.20;4.37;;;;;;;6.10;95.69;101370.84;5076270;28;20445;-67
2021/03/04 03:16:20;;;;;;;18.23;5.23;;;;;;;5.94;96.27;101367.19;5076209;28;20445;-67
2021/03/04 03:18:47;;;;;;;3.60;2.90;;;;;;;5.91;96.74;101364.94;5075909;28;20942;-67
2021/03/04 03:21:13;;;;;;;5.37;3.40;;;;;;;5.94;96.48;101358.31;5076042;28;20456;-67
2021/03/04 03:23:39;;;;;;;10.27;5.87;;;;;;;5.97;96.04;101357.78;5076316;28;20433;-67
2021/03/04 03:26:05;;;;;;;10.97;2.87;;;;;;;5.99;95.81;101366.41;5076200;28;20448;-67
2021/03/04 03:28:31;;;;;;;3.30;3.00;;;;;;;5.98;95.96;101360.22;5075552;28;20449;-67
2021/03/04 03:30:58;;;;;;;6.20;5.33;;;;;;;5.99;96.01;101353.78;5075919;28;20441;-67
2021/03/04 03:33:24;;;;;;;6.10;2.63;;;;;;;6.06;95.29;101348.19;5075684;28;20492;-67
2021/03/04 03:35:51;;;;;;;3.80;3.50;;;;;;;5.92;95.25;101345.09;5075944;28;20429;-67
2021/03/04 03:38:17;;;;;;;5.00;4.50;;;;;;;5.85;95.14;101349.03;5075877;28;20487;-67
2021/03/04 03:40:48;;;;;;;8.40;2.87;;;;;;;5.68;95.53;101352.56;5075720;28;20789;-67
2021/03/04 03:43:15;;;;;;;4.83;2.23;;;;;;;5.54;95.73;101364.75;5075734;28;20458;-67
2021/03/04 03:45:44;;;;;;;4.90;3.40;;;;;;;5.55;94.79;101343.00;5075810;28;20445;-67
2021/03/04 03:48:12;;;;;;;5.87;3.20;;;;;;;5.60;95.08;101358.38;5075357;28;20441;-67
2021/03/04 03:50:39;;;;;;;1.60;1.50;;;;;;;5.59;95.11;101361.31;5075659;28;20437;-67
2021/03/04 03:53:07;;;;;;;3.73;2.20;;;;;;;5.64;94.85;101361.38;5075532;28;20488;-68
2021/03/04 03:55:33;;;;;;;8.60;3.33;;;;;;;5.65;94.56;101355.75;5074494;28;20445;-66
2021/03/04 03:58:01;;;;;;;6.73;2.43;;;;;;;5.57;94.22;101356.16;5075628;28;20448;-65
2021/03/04 04:00:27;;;;;;;2.90;2.70;;;;;;;5.39;94.85;101346.53;5075303;28;20622;-66
2021/03/04 04:02:57;;;;;;;5.87;3.70;;;;;;;5.39;94.89;101351.09;5075327;28;20461;-66
2021/03/04 04:05:24;;;;;;;5.87;2.47;;;;;;;5.35;94.78;101355.31;5075349;28;20437;-67
2021/03/04 04:07:52;;;;;;;10.73;2.73;;;;;;;5.34;94.84;101351.03;5075264;28;20796;-66
2021/03/04 04:10:20;;;;;;;1.50;1.40;;;;;;;5.34;94.50;101345.66;5075262;28;20466;-67
2021/03/04 04:12:46;;;;;;;5.77;3.30;;;;;;;5.35;94.25;101352.63;5074969;28;20538;-66
2021/03/04 04:15:12;;;;;;;10.63;3.10;;;;;;;5.28;94.28;101358.19;5075176;28;20449;-66
2021/03/04 04:17:39;;;;;;;6.20;4.57;;;;;;;5.29;94.05;101355.25;5075023;28;20495;-66
2021/03/04 04:20:06;;;;;;;4.30;2.63;;;;;;;5.25;94.23;101348.75;5075111;28;20434;-66
2021/03/04 04:22:32;;;;;;;4.83;1.43;;;;;;;5.24;94.26;101357.88;5074751;28;20888;-67
2021/03/04 04:24:59;;;;;;;5.57;2.60;;;;;;;5.23;94.17;101355.44;5074999;28;20491;-66
2021/03/04 04:27:26;;;;;;;1.27;1.17;;;;;;;5.19;94.21;101347.06;5075047;28;20433;-66
2021/03/04 04:29:52;;;;;;;7.60;2.73;;;;;;;5.17;94.07;101343.78;5074939;28;20433;-66
2021/03/04 04:32:18;;;;;;;1.30;1.20;;;;;;;5.11;94.55;101339.41;5074658;28;20493;-67
2021/03/04 04:34:44;;;;;;;0.87;0.83;;;;;;;5.12;94.81;101341.03;5074790;28;20437;-66
2021/03/04 04:37:09;;;;;;;2.63;2.43;;;;;;;5.13;94.60;101341.84;5074609;28;20452;-67
2021/03/04 04:39:35;;;;;;;2.43;2.27;;;;;;;5.13;94.31;101339.97;5074605;28;20449;-68
2021/03/04 04:42:01;;;;;;;6.30;2.73;;;;;;;5.00;94.96;101337.63;5074591;28;20457;-67
2021/03/04 04:44:28;;;;;;;1.80;1.70;;;;;;;5.02;95.24;101346.25;5074212;28;20942;-67
2021/03/04 04:46:54;;;;;;;5.97;4.00;;;;;;;5.06;94.82;101342.84;5074312;28;20817;-67
2021/03/04 04:49:21;;;;;;;7.83;3.10;;;;;;;5.09;94.85;101341.53;5074371;28;20449;-66
2021/03/04 04:51:47;;;;;;;0.93;0.90;;;;;;;5.14;94.85;101340.81;5074373;28;20515;-67
2021/03/04 04:54:13;;;;;;;8.60;4.30;;;;;;;5.12;94.93;101340.22;5074341;28;20437;-67
2021/03/04 04:56:39;;;;;;;6.13;2.43;;;;;;;5.11;94.32;101336.72;5074352;28;20511;-67
2021/03/04 04:59:05;;;;;;;3.73;2.70;;;;;;;5.05;94.58;101341.22;5074374;28;20442;-67
2021/03/04 05:01:31;;;;;;;5.90;1.30;;;;;;;4.96;94.62;101347.25;5074224;28;20457;-68
2021/03/04 05:03:57;;;;;;;1.93;1.47;;;;;;;4.96;94.62;101336.50;5074257;28;20448;-66
2021/03/04 05:06:23;;;;;;;1.80;1.70;;;;;;;5.00;94.51;101343.00;5074035;28;20441;-67
2021/03/04 05:08:49;;;;;;;8.10;2.40;;;;;;;4.98;94.36;101335.19;5074229;28;20460;-66
2021/03/04 05:11:15;;;;;;;6.83;1.80;;;;;;;4.99;94.20;101336.81;5073967;28;20788;-66
2021/03/04 05:13:41;;;;;;;2.40;2.20;;;;;;;4.92;94.40;101327.31;5073520;28;20890;-67
2021/03/04 05:16:07;;;;;;;8.63;3.20;;;;;;;4.94;94.16;101325.19;5073717;28;20446;-67
2021/03/04 05:18:34;;;;;;;3.03;1.63;;;;;;;4.93;93.48;101328.94;5073819;28;20516;-66
2021/03/04 05:21:00;;;;;;;0.40;0.33;;;;;;;4.90;93.80;101321.38;5073823;28;20471;-67
2021/03/04 05:23:26;;;;;;;2.30;1.80;;;;;;;4.86;93.48;101321.03;5096743;22;20492;-67
2021/03/04 05:25:52;;;;;;;5.37;4.60;;;;;;;4.80;92.72;101322.84;5073622;28;20855;-66
2021/03/04 05:28:18;;;;;;;2.80;1.33;;;;;;;4.68;92.96;101322.09;5073470;28;20441;-67
2021/03/04 05:30:44;;;;;;;6.57;2.63;;;;;;;4.81;92.71;101315.59;5074945;28;20506;-67
2021/03/04 05:33:10;;;;;;;1.73;1.17;;;;;;;4.84;92.55;101314.31;5074521;28;20497;-66
2021/03/04 05:35:37;;;;;;;4.00;3.57;;;;;;;4.87;92.61;101317.31;5073447;28;20449;-67
2021/03/04 05:38:03;;;;;;;2.90;1.87;;;;;;;4.89;92.03;101314.38;5073115;28;20876;-67
2021/03/04 05:40:29;;;;;;;3.13;2.83;;;;;;;4.90;92.63;101307.94;5073393;28;20449;-70
2021/03/04 05:42:56;;;;;;;2.00;1.83;;;;;;;4.84;93.09;101311.63;5073592;28;20535;-68
2021/03/04 05:45:23;;;;;;;2.27;1.73;;;;;;;4.92;93.22;101314.72;5080516;28;20450;-70
2021/03/04 05:47:50;;;;;;;8.07;4.10;;;;;;;4.91;93.33;101312.25;5073444;28;20869;-68
2021/03/04 05:50:19;;;;;;;7.90;1.27;;;;;;;4.92;93.43;101309.34;5072990;28;20468;-71
2021/03/04 05:52:50;;;;;;;1.33;0.50;;;;;;;4.93;93.44;101304.78;5073114;28;20485;-68
2021/03/04 05:55:16;;;;;;;1.33;1.23;;;;;;;4.91;93.40;101301.50;5073298;28;20483;-69
2021/03/04 05:57:44;;;;;;;3.80;2.10;;;;;;;4.93;93.37;101302.91;5072951;28;20934;-68
2021/03/04 06:00:11;;;;;;;4.20;1.40;;;;;;;4.84;93.55;101303.56;5073152;28;20495;-69
2021/03/04 06:02:38;;;;;;;9.10;4.40;;;;;;;4.80;93.69;101300.56;5072707;28;21041;-69
2021/03/04 06:05:05;;;;;;;11.00;1.70;;;;;;;4.83;94.21;101308.13;5073221;28;20858;-68
2021/03/04 06:07:31;;;;;;;5.13;2.47;;;;;;;4.88;93.87;101304.72;5073080;28;20484;-69
2021/03/04 06:09:58;;;;;;;1.70;1.60;;;;;;;4.90;93.75;101307.94;5072802;28;20950;-68
2021/03/04 06:12:24;;;;;;;0.47;0.33;;;;;;;4.92;93.39;101313.91;5072919;28;20491;-68
2021/03/04 06:14:50;;;;;;;7.20;4.53;;;;;;;4.89;93.45;101309.81;5073137;28;20445;-69
2021/03/04 06:17:17;;;;;;;4.70;2.87;;;;;;;4.83;93.36;101310.81;5072469;28;20441;-68
2021/03/04 06:19:52;;;;;;;1.47;0.80;;;;;;;4.83;93.23;101310.00;5072882;28;20441;-67
2021/03/04 06:22:26;;;;;;;44.50;2.77;;;;;;;4.83;93.50;101305.44;5072709;28;20425;-66
2021/03/04 06:24:52;;;;;;;4.63;1.47;;;;;;;4.81;93.48;101302.97;5072628;28;20430;-67
2021/03/04 06:27:28;;;;;;;0.70;0.70;;;;;;;4.83;93.44;101307.31;5072576;28;20448;-66
2021/03/04 06:29:54;;;;;;;0.40;0.30;;;;;;;4.86;93.42;101306.81;5072921;28;20445;-66
2021/03/04 06:32:23;;;;;;;3.73;1.47;;;;;;;4.88;93.28;101288.59;5072824;28;20530;-68
2021/03/04 06:34:59;;;;;;;1.37;1.17;;;;;;;4.88;92.96;101291.28;5073047;28;20457;-68
2021/03/04 06:37:29;;;;;;;1.83;1.70;;;;;;;4.76;93.38;101296.72;5073097;28;20430;-67
2021/03/04 06:39:54;;;;;;;1.23;0.70;;;;;;;4.79;93.38;101299.75;5072903;28;20477;-67
2021/03/04 06:42:22;;;;;;;0.60;0.60;;;;;;;4.70;93.51;101303.09;5072856;28;20446;-67
2021/03/04 06:44:51;;;;;;;1.97;1.80;;;;;;;4.79;93.55;101312.34;5072922;28;20449;-67
2021/03/04 06:47:21;;;;;;;1.60;1.37;;;;;;;4.83;93.16;101312.69;5072753;28;20495;-67
2021/03/04 06:49:47;;;;;;;1.07;1.03;;;;;;;4.88;93.03;101310.88;5072900;28;20919;-67
2021/03/04 06:52:24;;;;;;;7.00;2.63;;;;;;;4.95;91.92;101313.38;5072543;28;20484;-65
2021/03/04 06:54:50;;;;;;;3.33;1.43;;;;;;;4.94;91.54;101311.75;5072591;28;20412;-67
2021/03/04 06:57:16;;;;;;;1.27;1.07;;;;;;;4.92;90.98;101314.72;5072695;28;20441;-67
2021/03/04 06:59:43;;;;;;;2.67;1.10;;;;;;;4.87;91.29;101316.47;5072687;28;20445;-69
2021/03/04 07:02:11;;;;;;;0.73;0.73;;;;;;;4.87;91.10;101305.75;5072392;28;20930;-67
2021/03/04 07:04:37;;;;;;;0.53;0.53;;;;;;;4.88;91.04;101307.41;5072539;28;20444;-67
2021/03/04 07:07:05;;;;;;;5.93;2.00;;;;;;;4.88;90.71;101308.19;5072681;28;20910;-66
2021/03/04 07:09:34;;;;;;;0.73;0.63;;;;;;;4.89;90.76;101303.66;5072619;28;20467;-67
2021/03/04 07:12:01;;;;;;;1.60;0.57;;;;;;;4.90;90.94;101306.06;5072148;28;20488;-67
2021/03/04 07:14:27;;;;;;;2.77;2.53;;;;;;;4.96;90.92;101306.97;5072464;28;20465;-67
2021/03/04 07:16:54;;;;;;;0.87;0.60;;;;;;;5.01;90.82;101312.44;5072584;28;20495;-67
2021/03/04 07:19:25;;;;;;;2.77;1.17;;;;;;;5.01;91.44;101307.06;5072483;28;20445;-67
2021/03/04 07:21:52;;;;;;;0.73;0.73;;;;;;;5.07;91.69;101303.38;5072522;28;20437;-67
2021/03/04 07:24:20;;;;;;;4.37;2.07;;;;;;;5.08;91.46;101307.69;5072146;28;20477;-67
2021/03/04 07:26:47;;;;;;;1.67;0.87;;;;;;;5.07;91.68;101306.06;5072468;28;20441;-67
2021/03/04 07:29:13;;;;;;;1.33;0.87;;;;;;;5.09;91.42;101309.31;5072417;28;20442;-67
2021/03/04 07:31:42;;;;;;;30.87;6.37;;;;;;;4.98;91.57;101307.53;5075876;28;20449;-67
2021/03/04 07:34:11;;;;;;;2.43;1.50;;;;;;;4.93;92.04;101300.22;5075734;28;20479;-67
2021/03/04 07:36:38;;;;;;;3.80;2.33;;;;;;;4.95;91.94;101305.34;5075883;28;20445;-67
2021/03/04 07:39:06;;;;;;;1.53;1.30;;;;;;;4.93;92.02;101302.91;5075909;28;20437;-68
2021/03/04 07:41:39;;;;;;;2.73;2.53;;;;;;;4.94;92.11;101306.41;5075731;28;20473;-67
2021/03/04 07:44:06;;;;;;;47.33;2.23;;;;;;;4.88;92.29;101307.41;5075641;28;20489;-68
2021/03/04 07:46:37;;;;;;;2.97;0.70;;;;;;;4.81;92.74;101313.72;5075276;28;20953;-67
2021/03/04 07:49:04;;;;;;;1.80;0.83;;;;;;;4.89;92.66;101312.50;5075635;28;20491;-67
2021/03/04 07:51:42;;;;;;;6.10;1.60;;;;;;;5.00;91.75;101308.09;5075191;28;20814;-68
2021/03/04 07:54:09;;;;;;;2.03;1.60;;;;;;;5.02;91.40;101308.69;5075523;28;20476;-68
2021/03/04 07:56:35;;;;;;;1.93;1.00;;;;;;;5.09;91.18;101312.00;5075515;28;20442;-68
2021/03/04 07:59:09;;;;;;;4.40;1.07;;;;;;;5.04;90.93;101310.03;5076656;28;20799;-68
2021/03/04 08:01:35;;;;;;;0.90;0.90;;;;;;;4.96;90.26;101304.31;5079322;28;20430;-68
2021/03/04 08:04:01;;;;;;;1.27;1.17;;;;;;;4.93;90.25;101305.59;5076892;28;20464;-68
2021/03/04 08:06:28;;;;;;;0.63;0.60;;;;;;;4.98;90.02;101307.53;5075219;28;20457;-67
2021/03/04 08:08:55;;;;;;;1.53;1.33;;;;;;;4.98;90.12;101305.66;5075294;28;20441;-68
2021/03/04 08:11:28;;;;;;;0.80;0.50;;;;;;;5.09;89.29;101309.31;5075275;28;20446;-68
2021/03/04 08:13:55;;;;;;;1.00;1.00;;;;;;;5.12;88.47;101311.50;5075062;28;20492;-68
2021/03/04 08:16:21;;;;;;;1.93;1.80;;;;;;;5.02;88.97;101297.94;5075085;28;20824;-69
2021/03/04 08:18:55;;;;;;;2.03;1.87;;;;;;;5.09;88.30;101319.22;5075072;28;20445;-68
2021/03/04 08:21:21;;;;;;;1.70;1.10;;;;;;;4.91;88.53;101310.38;5074882;28;20461;-68
2021/03/04 08:23:47;;;;;;;1.17;0.57;;;;;;;4.96;88.19;101301.63;5074679;28;20922;-68
2021/03/04 08:26:22;;;;;;;2.53;1.70;;;;;;;4.81;88.81;101308.34;5074738;28;20934;-68
2021/03/04 08:28:49;;;;;;;3.50;1.30;;;;;;;4.83;89.01;101312.69;5074938;28;20436;-67
2021/03/04 08:31:15;;;;;;;7.67;1.40;;;;;;;4.78;89.17;101314.22;5074723;28;20444;-68
2021/03/04 08:33:42;;;;;;;6.63;2.60;;;;;;;4.62;89.72;101298.94;5074619;28;20489;-68
2021/03/04 08:36:08;;;;;;;2.40;2.20;;;;;;;4.65;89.97;101292.25;5074685;28;20862;-68
2021/03/04 08:38:42;;;;;;;0.43;0.37;;;;;;;4.72;89.88;101288.34;5074717;28;20440;-67
2021/03/04 08:41:08;;;;;;;1.10;1.07;;;;;;;4.79;90.07;101298.94;5074039;28;20429;-69
2021/03/04 08:43:35;;;;;;;1.80;1.43;;;;;;;4.83;90.03;101291.22;5074511;28;20457;-69
2021/03/04 08:46:03;;;;;;;3.60;0.93;;;;;;;4.85;89.87;101289.88;5074572;28;20444;-68
2021/03/04 08:48:30;;;;;;;2.47;1.97;;;;;;;4.83;88.82;101294.72;5074476;28;20433;-68
2021/03/04 08:50:58;;;;;;;0.50;0.40;;;;;;;4.84;88.80;101285.59;5074443;28;20441;-68
2021/03/04 08:53:27;;;;;;;3.13;1.80;;;;;;;4.83;88.86;101288.53;5073860;28;20538;-68
2021/03/04 08:55:55;;;;;;;2.20;2.10;;;;;;;4.85;89.37;101289.09;5074340;28;20441;-68
2021/03/04 08:58:23;;;;;;;7.03;1.00;;;;;;;4.91;89.21;101285.41;5074262;28;20433;-67
2021/03/04 09:00:51;;;;;;;1.83;0.73;;;;;;;4.92;88.63;101285.19;5074075;28;20441;-68
2021/03/04 09:03:18;;;;;;;9.90;1.90;;;;;;;4.87;88.48;101292.31;5074052;28;20457;-68
2021/03/04 09:05:44;;;;;;;0.77;0.77;;;;;;;4.92;88.77;101277.13;5074128;28;20449;-68
2021/03/04 09:08:13;;;;;;;1.30;1.30;;;;;;;4.91;88.57;101277.34;5074054;28;20437;-68
2021/03/04 09:10:47;;;;;;;0.60;0.60;;;;;;;4.84;89.08;101284.78;5073514;28;20453;-68
2021/03/04 09:13:21;;;;;;;0.87;0.87;;;;;;;4.78;89.64;101281.19;5073357;28;21013;-68
2021/03/04 09:15:51;;;;;;;2.00;0.97;;;;;;;4.76;89.94;101276.06;5073839;28;20442;-68
2021/03/04 09:18:19;;;;;;;0.90;0.73;;;;;;;4.77;90.27;101266.16;5073503;28;21014;-68
2021/03/04 09:20:46;;;;;;;3.83;2.13;;;;;;;4.84;90.24;101268.69;5073806;28;20476;-68
2021/03/04 09:23:12;;;;;;;0.50;0.37;;;;;;;4.88;89.74;101254.53;5073416;28;20473;-68
2021/03/04 09:25:38;;;;;;;0.93;0.70;;;;;;;4.86;89.56;101271.91;5073500;28;21020;-68
2021/03/04 09:28:07;;;;;;;2.63;1.30;;;;;;;4.88;89.47;101264.44;5073612;28;20434;-67
2021/03/04 09:30:33;;;;;;;1.03;0.83;;;;;;;4.78;89.25;101265.09;5073640;28;20784;-68
2021/03/04 09:33:00;;;;;;;4.23;1.33;;;;;;;4.81;89.03;101265.41;5073102;28;21057;-67
2021/03/04 09:35:27;;;;;;;2.73;1.83;;;;;;;4.85;88.41;101262.25;5073462;28;20512;-67
2021/03/04 09:37:53;;;;;;;0.50;0.50;;;;;;;4.92;88.64;101260.22;5073313;28;21000;-67
2021/03/04 09:40:24;;;;;;;1.33;0.40;;;;;;;5.00;88.39;101267.81;5073518;28;20441;-69
2021/03/04 09:42:50;;;;;;;11.20;1.80;;;;;;;5.06;88.22;101261.47;5073341;28;20535;-67
2021/03/04 09:45:16;;;;;;;12.67;1.80;;;;;;;5.14;87.82;101266.44;5073244;28;20892;-67
2021/03/04 09:47:46;;;;;;;4.93;1.90;;;;;;;5.12;86.91;101271.22;5073210;28;20887;-67
2021/03/04 09:50:20;;;;;;;2.00;0.97;;;;;;;5.05;87.33;101281.34;5073428;28;20444;-68
2021/03/04 09:52:58;;;;;;;2.83;0.97;;;;;;;5.04;87.07;101280.50;5072553;28;20875;-68
2021/03/04 09:55:24;;;;;;;0.40;0.30;;;;;;;5.07;87.49;101287.25;5073442;28;20433;-69
2021/03/04 09:57:50;;;;;;;0.50;0.40;;;;;;;5.10;87.78;101283.28;5073365;28;20808;-68
2021/03/04 10:00:21;;;;;;;3.37;0.77;;;;;;;5.16;86.99;101279.59;5073545;28;20445;-68
2021/03/04 10:02:48;;;;;;;2.93;1.50;;;;;;;5.00;87.16;101284.78;5073124;28;20978;-69
2021/03/04 10:05:17;;;;;;;1.67;1.57;;;;;;;5.03;87.32;101289.63;5073266;28;20441;-68
2021/03/04 10:07:43;;;;;;;4.43;1.27;;;;;;;4.95;87.59;101297.28;5073248;28;20442;-67
2021/03/04 10:10:16;;;;;;;2.40;0.97;;;;;;;4.90;88.49;101289.97;5073234;28;20437;-68
2021/03/04 10:12:51;;;;;;;0.60;0.60;;;;;;;4.85;88.84;101292.56;5073072;28;20492;-68
2021/03/04 10:15:24;;;;;;;69.77;3.23;;;;;;;4.72;89.39;101293.72;5073962;28;20823;-68
2021/03/04 10:17:50;;;;;;;1.37;0.73;;;;;;;4.62;89.41;101290.06;5074033;28;20434;-68
2021/03/04 10:20:16;;;;;;;1.80;1.70;;;;;;;4.48;89.87;101292.25;5072744;28;21056;-68
2021/03/04 10:22:42;;;;;;;3.57;2.17;;;;;;;4.49;89.62;101294.69;5072425;28;21035;-69
2021/03/04 10:25:09;;;;;;;0.83;0.83;;;;;;;4.55;88.95;101298.25;5073039;28;20438;-68
2021/03/04 10:27:37;;;;;;;0.87;0.87;;;;;;;4.30;88.70;101302.16;5073135;28;20445;-68
2021/03/04 10:30:06;;;;;;;0.80;0.77;;;;;;;4.34;89.22;101298.97;5073004;28;20440;-68
2021/03/04 10:32:32;;;;;;;1.23;0.57;;;;;;;4.35;88.27;101298.75;5072492;28;20485;-69
2021/03/04 10:34:58;;;;;;;0.50;0.40;;;;;;;4.52;88.19;101290.72;5072841;28;20451;-68
2021/03/04 10:37:24;;;;;;;0.70;0.57;;;;;;;4.57;86.80;101285.44;5072511;28;20475;-68
2021/03/04 10:39:50;;;;;;;0.50;0.50;;;;;;;4.50;86.89;101284.78;5072636;28;20966;-68
2021/03/04 10:42:16;;;;;;;0.40;0.30;;;;;;;4.62;86.73;101282.84;5072521;28;20429;-67
2021/03/04 10:44:43;;;;;;;1.80;1.07;;;;;;;4.76;86.25;101284.13;5072889;28;20445;-68
2021/03/04 10:47:09;;;;;;;5.10;1.47;;;;;;;4.59;85.76;101291.34;5072780;28;20442;-68
2021/03/04 10:49:35;;;;;;;2.57;1.57;;;;;;;4.63;85.87;101286.31;5072522;28;20441;-68
2021/03/04 10:52:01;;;;;;;1.37;1.07;;;;;;;4.71;85.73;101286.72;5072734;28;20445;-68
2021/03/04 10:54:26;;;;;;;0.50;0.47;;;;;;;4.73;85.00;101284.59;5072591;28;20511;-68
2021/03/04 10:56:52;;;;;;;1.10;0.60;;;;;;;4.56;85.18;101283.81;5073185;28;20464;-68
2021/03/04 10:59:18;;;;;;;0.80;0.57;;;;;;;4.52;85.63;101285.34;5072750;28;20833;-69
2021/03/04 11:01:45;;;;;;;1.27;1.17;;;;;;;4.64;85.12;101293.31;5072805;28;20441;-68
2021/03/04 11:04:11;;;;;;;1.40;1.30;;;;;;;4.65;84.63;101294.94;5074154;28;20460;-68
2021/03/04 11:06:38;;;;;;;2.57;1.97;;;;;;;4.59;83.98;101294.03;5076486;28;20437;-69
2021/03/04 11:09:04;;;;;;;0.70;0.70;;;;;;;4.57;84.16;101298.84;5076391;28;20445;-69
2021/03/04 11:11:30;;;;;;;1.13;1.13;;;;;;;4.61;84.30;101297.31;5076416;28;20445;-68
2021/03/04 11:13:56;;;;;;;0.40;0.33;;;;;;;4.63;84.39;101297.88;5076234;28;20491;-69
2021/03/04 11:16:22;;;;;;;1.27;1.27;;;;;;;4.55;84.25;101292.91;5076263;28;20445;-69
2021/03/04 11:18:48;;;;;;;1.07;1.00;;;;;;;4.48;83.30;101297.63;5075850;28;20958;-68
2021/03/04 11:21:14;;;;;;;1.60;0.70;;;;;;;4.41;83.33;101292.41;5076147;28;20500;-70
2021/03/04 11:23:40;;;;;;;0.70;0.67;;;;;;;4.49;83.16;101294.69;5075618;28;20898;-67
2021/03/04 11:26:07;;;;;;;0.90;0.43;;;;;;;4.64;82.83;101291.44;5075966;28;21040;-69
2021/03/04 11:28:33;;;;;;;0.83;0.80;;;;;;;4.69;82.76;101307.66;5075970;28;20448;-68
2021/03/04 11:30:59;;;;;;;0.40;0.30;;;;;;;4.48;82.69;101303.00;5075644;28;20863;-69
2021/03/04 11:33:25;;;;;;;0.50;0.50;;;;;;;4.51;82.37;101289.88;5075492;28;20998;-67